createdAt,value
2023-02-22T00:00:19.867Z,14.03
2023-02-22T00:02:48.438Z,14.80
2023-02-22T00:05:19.974Z,15.00
2023-02-22T00:07:50.660Z,14.83
2023-02-22T00:10:20.999Z,16.10
2023-02-22T00:12:51.235Z,15.87
2023-02-22T00:15:19.911Z,16.67
2023-02-22T00:17:46.825Z,15.07
2023-02-22T00:20:18.788Z,14.57
2023-02-22T00:22:47.802Z,15.27
2023-02-22T00:25:17.358Z,15.30
2023-02-22T00:27:45.480Z,15.80
2023-02-22T00:30:19.145Z,16.10
2023-02-22T00:32:47.496Z,14.33
2023-02-22T00:35:15.811Z,16.47
2023-02-22T00:37:42.493Z,14.73
2023-02-22T00:40:11.612Z,15.00
2023-02-22T00:42:38.683Z,19.37
2023-02-22T00:45:07.130Z,18.20
2023-02-22T00:47:33.864Z,16.80
2023-02-22T00:50:00.844Z,16.73
2023-02-22T00:52:28.319Z,18.40
2023-02-22T00:54:55.728Z,16.80
2023-02-22T00:57:23.210Z,17.70
2023-02-22T00:59:50.578Z,17.50
2023-02-22T01:02:17.581Z,17.33
2023-02-22T01:04:44.593Z,20.50
2023-02-22T01:07:11.318Z,16.77
2023-02-22T01:09:39.635Z,19.20
2023-02-22T01:12:06.350Z,18.00
2023-02-22T01:14:32.963Z,17.90
2023-02-22T01:16:59.628Z,17.17
2023-02-22T01:19:26.257Z,17.77
2023-02-22T01:21:52.876Z,19.93
2023-02-22T01:24:19.603Z,16.73
2023-02-22T01:26:51.941Z,18.73
2023-02-22T01:29:21.071Z,16.43
2023-02-22T01:31:54.533Z,17.70
2023-02-22T01:34:23.234Z,19.30
2023-02-22T01:36:50.125Z,18.70
2023-02-22T01:39:17.879Z,18.20
2023-02-22T01:41:47.269Z,18.00
2023-02-22T01:44:31.012Z,19.43
2023-02-22T01:47:00.141Z,18.43
2023-02-22T01:49:32.809Z,19.87
2023-02-22T01:52:03.685Z,18.40
2023-02-22T01:54:40.980Z,17.80
2023-02-22T01:57:20.420Z,18.53
2023-02-22T01:59:50.981Z,18.50
2023-02-22T02:02:21.631Z,17.97
2023-02-22T02:04:49.121Z,18.23
2023-02-22T02:07:21.088Z,15.67
2023-02-22T02:09:56.717Z,19.33
2023-02-22T02:12:24.022Z,17.00
2023-02-22T02:14:50.682Z,18.20
2023-02-22T02:17:19.971Z,18.80
2023-02-22T02:20:11.766Z,16.57
2023-02-22T02:23:00.794Z,16.50
2023-02-22T02:25:45.515Z,19.10
2023-02-22T02:28:35.222Z,17.10
2023-02-22T02:31:32.052Z,17.33
2023-02-22T02:34:15.593Z,17.50
2023-02-22T02:36:47.683Z,17.30
2023-02-22T02:39:29.147Z,19.17
2023-02-22T02:41:58.430Z,15.27
2023-02-22T02:44:36.854Z,14.63
2023-02-22T02:47:11.158Z,14.93
2023-02-22T02:49:54.675Z,15.80
2023-02-22T02:52:23.242Z,14.90
2023-02-22T02:54:51.232Z,16.23
2023-02-22T02:57:17.868Z,16.27
2023-02-22T02:59:44.691Z,17.73
2023-02-22T03:02:44.473Z,16.47
2023-02-22T03:05:52.461Z,15.63
2023-02-22T03:08:38.406Z,14.57
2023-02-22T03:11:35.527Z,14.77
2023-02-22T03:14:06.202Z,14.43
2023-02-22T03:16:45.950Z,15.90
2023-02-22T03:19:21.576Z,15.40
2023-02-22T03:22:14.489Z,15.57
2023-02-22T03:24:59.198Z,16.60
2023-02-22T03:27:31.966Z,15.53
2023-02-22T03:30:03.628Z,17.10
2023-02-22T03:32:36.688Z,16.03
2023-02-22T03:35:11.027Z,16.17
2023-02-22T03:37:45.347Z,18.10
2023-02-22T03:40:18.854Z,17.33
2023-02-22T03:42:54.336Z,17.43
2023-02-22T03:45:25.033Z,14.90
2023-02-22T03:48:01.117Z,16.80
2023-02-22T03:50:32.990Z,16.73
2023-02-22T03:52:59.693Z,15.40
2023-02-22T03:55:28.781Z,15.73
2023-02-22T03:57:58.626Z,18.20
2023-02-22T04:00:29.497Z,15.27
2023-02-22T04:02:56.717Z,14.80
2023-02-22T04:05:25.000Z,16.03
2023-02-22T04:07:53.061Z,14.40
2023-02-22T04:10:19.971Z,15.63
2023-02-22T04:12:46.624Z,16.80
2023-02-22T04:15:15.970Z,16.10
2023-02-22T04:17:42.840Z,15.37
2023-02-22T04:20:10.258Z,16.13
2023-02-22T04:22:37.056Z,15.80
2023-02-22T04:25:03.797Z,16.03
2023-02-22T04:27:30.411Z,17.40
2023-02-22T04:29:57.004Z,16.07
2023-02-22T04:32:23.671Z,15.67
2023-02-22T04:34:50.272Z,16.03
2023-02-22T04:37:16.922Z,15.80
2023-02-22T04:39:43.603Z,15.37
2023-02-22T04:42:10.198Z,15.53
2023-02-22T04:44:36.827Z,16.30
2023-02-22T04:47:03.561Z,14.87
2023-02-22T04:49:30.261Z,16.20
2023-02-22T04:51:56.856Z,15.50
2023-02-22T04:54:23.483Z,14.77
2023-02-22T04:56:50.083Z,15.00
2023-02-22T04:59:16.799Z,15.77
2023-02-22T05:01:43.435Z,15.20
2023-02-22T05:04:10.025Z,15.37
2023-02-22T05:06:36.778Z,14.40
2023-02-22T05:09:04.053Z,14.80
2023-02-22T05:11:30.773Z,15.47
2023-02-22T05:13:57.401Z,16.77
2023-02-22T05:16:24.074Z,16.10
2023-02-22T05:18:50.767Z,15.43
2023-02-22T05:21:17.904Z,16.73
2023-02-22T05:23:44.712Z,17.10
2023-02-22T05:26:11.811Z,16.40
2023-02-22T05:28:39.090Z,18.10
2023-02-22T05:31:07.434Z,15.70
2023-02-22T05:33:34.342Z,14.80
2023-02-22T05:36:01.133Z,15.93
2023-02-22T05:38:28.328Z,15.97
2023-02-22T05:40:55.027Z,15.70
2023-02-22T05:43:21.651Z,16.97
2023-02-22T05:45:48.316Z,16.90
2023-02-22T05:48:14.901Z,16.00
2023-02-22T05:50:41.547Z,15.20
2023-02-22T05:53:08.176Z,18.10
2023-02-22T05:55:34.863Z,16.67
2023-02-22T05:58:01.834Z,18.83
2023-02-22T06:00:30.971Z,16.57
2023-02-22T06:03:00.184Z,17.00
2023-02-22T06:05:27.510Z,16.33
2023-02-22T06:07:54.810Z,16.57
2023-02-22T06:10:21.569Z,15.30
2023-02-22T06:12:49.070Z,17.37
2023-02-22T06:15:16.844Z,18.70
2023-02-22T06:17:43.640Z,18.27
2023-02-22T06:20:15.579Z,18.67
2023-02-22T06:22:42.324Z,18.33
2023-02-22T06:25:13.196Z,18.93
2023-02-22T06:27:39.980Z,15.63
2023-02-22T06:30:07.474Z,17.00
2023-02-22T06:32:34.166Z,17.63
2023-02-22T06:35:00.746Z,17.60
2023-02-22T06:37:27.354Z,15.83
2023-02-22T06:39:53.983Z,17.23
2023-02-22T06:42:20.619Z,17.57
2023-02-22T06:44:47.412Z,18.40
2023-02-22T06:47:14.024Z,17.20
2023-02-22T06:49:40.677Z,17.83
2023-02-22T06:52:08.897Z,17.73
2023-02-22T06:54:37.175Z,16.80
2023-02-22T06:57:03.850Z,17.27
2023-02-22T06:59:30.485Z,17.90
2023-02-22T07:01:57.077Z,19.07
2023-02-22T07:04:23.793Z,17.97
2023-02-22T07:06:50.737Z,16.67
2023-02-22T07:09:18.947Z,16.30
2023-02-22T07:11:45.614Z,15.80
2023-02-22T07:14:12.212Z,16.00
2023-02-22T07:16:38.985Z,17.03
2023-02-22T07:19:05.616Z,16.93
2023-02-22T07:21:32.245Z,16.33
2023-02-22T07:23:59.230Z,17.10
2023-02-22T07:26:26.967Z,15.77
2023-02-22T07:28:53.732Z,17.53
2023-02-22T07:31:20.346Z,13.70
2023-02-22T07:33:47.995Z,14.73
2023-02-22T07:36:17.895Z,15.17
2023-02-22T07:38:45.648Z,16.00
2023-02-22T07:41:12.630Z,14.03
2023-02-22T07:43:39.297Z,16.90
2023-02-22T07:46:06.137Z,15.87
2023-02-22T07:48:32.791Z,16.33
2023-02-22T07:51:00.049Z,14.97
2023-02-22T07:53:30.477Z,12.93
2023-02-22T07:56:02.373Z,15.00
2023-02-22T07:58:30.362Z,16.70
2023-02-22T08:00:58.846Z,16.63
2023-02-22T08:03:27.020Z,15.10
2023-02-22T08:05:56.114Z,21.17
2023-02-22T08:08:23.391Z,15.37
2023-02-22T08:10:50.881Z,16.73
2023-02-22T08:13:18.644Z,14.17
2023-02-22T08:15:47.079Z,15.60
2023-02-22T08:18:16.569Z,14.87
2023-02-22T08:20:45.833Z,15.93
2023-02-22T08:23:14.160Z,17.00
2023-02-22T08:25:41.356Z,13.57
2023-02-22T08:28:14.966Z,14.23
2023-02-22T08:30:43.661Z,15.03
2023-02-22T08:33:14.280Z,14.80
2023-02-22T08:35:41.467Z,16.13
2023-02-22T08:38:15.454Z,15.97
2023-02-22T08:40:42.060Z,14.07
2023-02-22T08:43:08.664Z,15.23
2023-02-22T08:45:35.336Z,15.63
2023-02-22T08:48:02.016Z,15.50
2023-02-22T08:50:33.509Z,14.67
2023-02-22T08:53:01.837Z,12.53
2023-02-22T08:55:32.152Z,15.33
2023-02-22T08:58:01.373Z,13.27
2023-02-22T09:00:29.590Z,14.50
2023-02-22T09:02:56.421Z,12.97
2023-02-22T09:05:23.199Z,14.70
2023-02-22T09:07:49.820Z,15.10
2023-02-22T09:10:24.431Z,14.40
2023-02-22T09:12:57.686Z,15.10
2023-02-22T09:15:25.349Z,14.87
2023-02-22T09:17:53.061Z,14.77
2023-02-22T09:20:21.522Z,15.80
2023-02-22T09:22:49.432Z,15.53
2023-02-22T09:25:17.644Z,14.63
2023-02-22T09:27:47.844Z,17.07
2023-02-22T09:30:23.924Z,20.17
2023-02-22T09:32:57.579Z,16.20
2023-02-22T09:35:27.029Z,16.70
2023-02-22T09:37:55.660Z,15.37
2023-02-22T09:40:29.655Z,15.77
2023-02-22T09:43:21.315Z,15.07
2023-02-22T09:46:04.936Z,18.40
2023-02-22T09:48:35.864Z,17.27
2023-02-22T09:51:11.543Z,16.73
2023-02-22T09:53:45.269Z,15.30
2023-02-22T09:56:14.855Z,15.27
2023-02-22T09:58:52.150Z,17.27
2023-02-22T10:01:33.168Z,15.03
2023-02-22T10:04:06.099Z,16.00
2023-02-22T10:06:34.637Z,17.33
2023-02-22T10:09:07.905Z,16.00
2023-02-22T10:11:53.237Z,15.83
2023-02-22T10:14:47.933Z,14.40
2023-02-22T10:17:27.357Z,14.00
2023-02-22T10:20:32.021Z,14.43
2023-02-22T10:23:14.070Z,13.87
2023-02-22T10:25:44.981Z,12.80
2023-02-22T10:28:34.584Z,15.17
2023-02-22T10:31:08.579Z,15.57
2023-02-22T10:33:41.815Z,13.40
2023-02-22T10:36:20.552Z,15.70
2023-02-22T10:38:58.436Z,14.00
2023-02-22T10:41:38.706Z,15.30
2023-02-22T10:44:05.316Z,13.23
2023-02-22T10:46:35.027Z,14.80
2023-02-22T10:49:07.369Z,14.83
2023-02-22T10:51:34.247Z,13.60
2023-02-22T10:54:25.234Z,15.70
2023-02-22T10:56:55.460Z,15.07
2023-02-22T10:59:34.873Z,15.97
2023-02-22T11:02:16.505Z,15.30
2023-02-22T11:04:51.984Z,16.13
2023-02-22T11:07:23.959Z,15.37
2023-02-22T11:09:56.231Z,16.53
2023-02-22T11:12:37.504Z,9.73
2023-02-22T11:15:26.450Z,14.67
2023-02-22T11:17:57.417Z,13.77
2023-02-22T11:20:34.841Z,16.90
2023-02-22T11:23:04.129Z,14.87
2023-02-22T11:25:37.756Z,16.40
2023-02-22T11:28:32.757Z,14.50
2023-02-22T11:31:11.557Z,15.57
2023-02-22T11:33:38.827Z,16.20
2023-02-22T11:36:09.247Z,16.53
2023-02-22T11:38:38.983Z,15.50
2023-02-22T11:41:22.933Z,14.80
2023-02-22T11:43:51.340Z,14.33
2023-02-22T11:46:19.895Z,13.50
2023-02-22T11:49:06.812Z,12.63
2023-02-22T11:51:50.529Z,14.07
2023-02-22T11:54:45.627Z,13.03
2023-02-22T11:57:41.214Z,15.10
2023-02-22T12:00:33.657Z,12.70
2023-02-22T12:03:40.373Z,13.73
2023-02-22T12:06:40.117Z,12.50
2023-02-22T12:09:06.672Z,12.97
2023-02-22T12:11:50.842Z,13.40
2023-02-22T12:14:58.154Z,13.77
2023-02-22T12:17:59.410Z,13.73
2023-02-22T12:20:51.131Z,13.37
2023-02-22T12:23:32.765Z,14.20
2023-02-22T12:26:05.437Z,14.10
2023-02-22T12:28:40.476Z,13.30
2023-02-22T12:31:18.255Z,15.30
2023-02-22T12:34:13.467Z,13.30
2023-02-22T12:36:46.929Z,14.10
2023-02-22T12:39:36.082Z,17.40
2023-02-22T12:42:16.693Z,14.10
2023-02-22T12:44:48.541Z,13.50
2023-02-22T12:47:19.812Z,13.50
2023-02-22T12:50:00.282Z,13.77
2023-02-22T12:52:47.145Z,13.00
2023-02-22T12:55:38.301Z,11.80
2023-02-22T12:58:10.089Z,12.23
2023-02-22T13:01:18.680Z,13.77
2023-02-22T13:03:46.146Z,12.63
2023-02-22T13:06:32.608Z,13.70
2023-02-22T13:09:30.478Z,13.00
2023-02-22T13:12:45.258Z,13.40
2023-02-22T13:15:23.587Z,13.10
2023-02-22T13:18:08.009Z,12.93
2023-02-22T13:20:41.281Z,12.70
2023-02-22T13:23:44.694Z,14.17
2023-02-22T13:26:24.451Z,12.77
2023-02-22T13:28:57.056Z,11.70
2023-02-22T13:31:42.604Z,11.73
2023-02-22T13:34:24.528Z,12.10
2023-02-22T13:36:59.746Z,11.30
2023-02-22T13:39:32.105Z,12.23
2023-02-22T13:42:32.067Z,10.33
2023-02-22T13:45:09.074Z,10.47
2023-02-22T13:47:59.883Z,11.40
2023-02-22T13:50:53.736Z,10.20
2023-02-22T13:53:28.775Z,11.20
2023-02-22T13:55:59.317Z,11.63
2023-02-22T13:58:26.721Z,10.43
2023-02-22T14:00:56.265Z,9.80
2023-02-22T14:03:30.051Z,9.67
2023-02-22T14:06:00.844Z,10.07
2023-02-22T14:08:31.554Z,11.03
2023-02-22T14:11:02.256Z,11.43
2023-02-22T14:13:31.049Z,10.40
2023-02-22T14:16:00.741Z,10.20
2023-02-22T14:18:47.279Z,10.50
2023-02-22T14:21:16.481Z,13.07
2023-02-22T14:23:46.111Z,23.53
2023-02-22T14:26:29.265Z,11.97
2023-02-22T14:29:07.842Z,10.50
2023-02-22T14:31:43.506Z,10.50
2023-02-22T14:34:11.248Z,9.40
2023-02-22T14:37:08.448Z,9.53
2023-02-22T14:39:43.509Z,9.10
2023-02-22T14:42:15.959Z,10.40
2023-02-22T14:44:54.210Z,10.70
2023-02-22T14:47:30.320Z,9.30
2023-02-22T14:50:08.453Z,10.17
2023-02-22T14:52:38.367Z,10.40
2023-02-22T14:55:19.900Z,9.80
2023-02-22T14:58:10.301Z,10.70
2023-02-22T15:00:45.833Z,9.90
2023-02-22T15:03:37.425Z,11.97
2023-02-22T15:06:06.282Z,9.97
2023-02-22T15:08:34.319Z,11.83
2023-02-22T15:11:02.289Z,10.77
2023-02-22T15:13:34.140Z,12.83
2023-02-22T15:16:03.675Z,10.83
2023-02-22T15:18:48.585Z,11.50
2023-02-22T15:21:20.683Z,11.53
2023-02-22T15:24:03.090Z,12.40
2023-02-22T15:26:31.262Z,12.30
2023-02-22T15:28:59.734Z,11.93
2023-02-22T15:31:38.965Z,12.13
2023-02-22T15:34:14.725Z,10.90
2023-02-22T15:36:47.094Z,11.40
2023-02-22T15:39:29.629Z,11.67
2023-02-22T15:42:19.125Z,12.33
2023-02-22T15:44:47.762Z,11.10
2023-02-22T15:47:34.294Z,12.63
2023-02-22T15:50:29.165Z,12.73
2023-02-22T15:53:01.800Z,12.90
2023-02-22T15:55:38.098Z,11.33
2023-02-22T15:58:16.932Z,12.57
2023-02-22T16:01:00.266Z,12.67
2023-02-22T16:03:28.482Z,11.90
2023-02-22T16:05:56.962Z,12.03
2023-02-22T16:08:29.238Z,12.63
2023-02-22T16:11:20.366Z,12.80
2023-02-22T16:13:54.193Z,12.70
2023-02-22T16:16:29.355Z,11.30
2023-02-22T16:19:25.242Z,11.43
2023-02-22T16:22:02.882Z,12.63
2023-02-22T16:24:35.432Z,12.67
2023-02-22T16:27:18.802Z,11.47
2023-02-22T16:30:15.592Z,11.70
2023-02-22T16:32:49.637Z,11.67
2023-02-22T16:35:19.568Z,11.63
2023-02-22T16:37:51.920Z,12.57
2023-02-22T16:40:45.539Z,12.50
2023-02-22T16:43:17.061Z,12.20
2023-02-22T16:45:44.876Z,11.10
2023-02-22T16:48:20.721Z,12.10
2023-02-22T16:50:50.252Z,10.50
2023-02-22T16:53:20.491Z,11.67
2023-02-22T16:55:48.137Z,11.87
2023-02-22T16:58:17.277Z,11.43
2023-02-22T17:00:44.415Z,11.63
2023-02-22T17:03:15.981Z,11.43
2023-02-22T17:05:43.265Z,11.03
2023-02-22T17:08:10.127Z,12.87
2023-02-22T17:10:36.941Z,11.63
2023-02-22T17:13:21.254Z,12.37
2023-02-22T17:15:49.667Z,11.93
2023-02-22T17:18:22.496Z,13.27
2023-02-22T17:20:51.065Z,12.80
2023-02-22T17:23:18.089Z,12.73
2023-02-22T17:25:50.291Z,13.77
2023-02-22T17:28:17.209Z,12.67
2023-02-22T17:30:47.711Z,13.67
2023-02-22T17:33:20.888Z,12.40
2023-02-22T17:35:48.327Z,14.57
2023-02-22T17:38:18.629Z,12.87
2023-02-22T17:40:51.980Z,12.83
2023-02-22T17:43:19.369Z,13.87
2023-02-22T17:45:46.375Z,12.73
2023-02-22T17:48:14.522Z,13.90
2023-02-22T17:50:43.568Z,11.90
2023-02-22T17:53:11.134Z,13.80
2023-02-22T17:55:40.535Z,12.83
2023-02-22T17:58:08.246Z,14.60
2023-02-22T18:00:37.454Z,13.37
2023-02-22T18:03:08.025Z,14.00
2023-02-22T18:05:40.898Z,13.60
2023-02-22T18:08:08.177Z,12.73
2023-02-22T18:10:34.965Z,13.30
2023-02-22T18:13:04.739Z,12.50
2023-02-22T18:15:35.509Z,11.97
2023-02-22T18:18:05.089Z,13.20
2023-02-22T18:20:38.010Z,14.10
2023-02-22T18:23:09.955Z,10.93
2023-02-22T18:25:38.000Z,10.90
2023-02-22T18:28:06.313Z,11.60
2023-02-22T18:30:35.774Z,11.20
2023-02-22T18:33:03.616Z,12.23
2023-02-22T18:35:30.969Z,11.50
2023-02-22T18:37:57.734Z,11.43
2023-02-22T18:40:24.411Z,11.47
2023-02-22T18:42:51.064Z,11.30
2023-02-22T18:45:18.051Z,11.10
2023-02-22T18:47:45.529Z,10.10
2023-02-22T18:50:13.504Z,10.60
2023-02-22T18:52:46.203Z,10.37
2023-02-22T18:55:17.933Z,11.70
2023-02-22T18:57:45.953Z,11.10
2023-02-22T19:00:16.811Z,10.73
2023-02-22T19:02:43.576Z,11.50
2023-02-22T19:05:12.570Z,11.13
2023-02-22T19:07:39.573Z,11.97
2023-02-22T19:10:07.063Z,11.13
2023-02-22T19:12:33.891Z,11.33
2023-02-22T19:15:00.972Z,11.30
2023-02-22T19:17:29.514Z,11.50
2023-02-22T19:19:56.497Z,12.03
2023-02-22T19:22:26.103Z,10.10
2023-02-22T19:24:54.102Z,12.40
2023-02-22T19:27:21.429Z,11.23
2023-02-22T19:29:49.412Z,12.47
2023-02-22T19:32:17.292Z,11.63
2023-02-22T19:34:44.422Z,12.07
2023-02-22T19:37:13.037Z,11.87
2023-02-22T19:39:42.130Z,11.53
2023-02-22T19:42:10.186Z,11.73
2023-02-22T19:44:37.330Z,12.00
2023-02-22T19:47:08.913Z,12.60
2023-02-22T19:49:40.960Z,14.07
2023-02-22T19:52:07.574Z,11.23
2023-02-22T19:54:34.249Z,12.70
2023-02-22T19:57:01.038Z,11.07
2023-02-22T19:59:28.426Z,11.10
2023-02-22T20:01:56.154Z,11.50
2023-02-22T20:04:23.507Z,11.93
2023-02-22T20:06:57.402Z,12.77
2023-02-22T20:09:46.826Z,12.87
2023-02-22T20:12:13.600Z,11.77
2023-02-22T20:14:40.233Z,11.73
2023-02-22T20:17:07.739Z,12.97
2023-02-22T20:19:37.111Z,12.80
2023-02-22T20:22:03.831Z,11.27
2023-02-22T20:24:30.452Z,12.77
2023-02-22T20:26:58.191Z,11.57
2023-02-22T20:29:31.607Z,12.37
2023-02-22T20:32:00.371Z,12.73
2023-02-22T20:34:31.237Z,13.00
2023-02-22T20:36:58.757Z,12.70
2023-02-22T20:39:25.506Z,12.53
2023-02-22T20:41:52.640Z,12.90
2023-02-22T20:44:19.956Z,13.57
2023-02-22T20:46:47.258Z,13.10
2023-02-22T20:49:17.371Z,12.07
2023-02-22T20:51:45.204Z,13.77
2023-02-22T20:54:12.720Z,13.23
2023-02-22T20:56:44.059Z,11.73
2023-02-22T20:59:16.830Z,13.90
2023-02-22T21:01:43.672Z,12.27
2023-02-22T21:04:11.369Z,13.30
2023-02-22T21:06:39.833Z,12.30
2023-02-22T21:09:11.025Z,12.47
2023-02-22T21:11:38.880Z,13.40
2023-02-22T21:14:06.218Z,13.03
2023-02-22T21:16:35.518Z,12.50
2023-02-22T21:19:05.782Z,13.90
2023-02-22T21:21:32.834Z,14.23
2023-02-22T21:24:02.733Z,13.63
2023-02-22T21:26:32.423Z,13.30
2023-02-22T21:29:04.743Z,12.87
2023-02-22T21:31:33.889Z,13.90
2023-02-22T21:34:01.288Z,12.77
2023-02-22T21:36:28.830Z,14.00
2023-02-22T21:38:58.044Z,12.90
2023-02-22T21:41:27.981Z,12.27
2023-02-22T21:43:56.199Z,12.77
2023-02-22T21:46:23.878Z,12.17
2023-02-22T21:48:50.687Z,14.70
2023-02-22T21:51:23.728Z,13.87
2023-02-22T21:53:53.215Z,12.77
2023-02-22T21:56:27.219Z,14.07
2023-02-22T21:58:59.174Z,13.17
2023-02-22T22:01:31.499Z,13.67
2023-02-22T22:04:00.404Z,15.03
2023-02-22T22:06:29.168Z,12.30
2023-02-22T22:08:57.221Z,14.43
2023-02-22T22:11:25.078Z,15.23
2023-02-22T22:13:57.271Z,14.27
2023-02-22T22:16:27.153Z,14.20
2023-02-22T22:18:54.698Z,14.10
2023-02-22T22:21:23.576Z,13.87
2023-02-22T22:23:54.302Z,14.80
2023-02-22T22:26:21.736Z,13.70
2023-02-22T22:28:51.861Z,14.07
2023-02-22T22:31:21.300Z,15.27
2023-02-22T22:33:48.353Z,14.43
2023-02-22T22:36:17.137Z,14.70
2023-02-22T22:38:46.972Z,12.83
2023-02-22T22:41:15.085Z,14.60
2023-02-22T22:43:46.110Z,13.93
2023-02-22T22:46:14.728Z,13.03
2023-02-22T22:48:41.355Z,15.00
2023-02-22T22:51:10.427Z,13.83
2023-02-22T22:53:39.896Z,14.43
2023-02-22T22:56:18.550Z,15.00
2023-02-22T22:58:49.520Z,14.30
2023-02-22T23:01:19.284Z,14.30
2023-02-22T23:03:55.806Z,13.80
2023-02-22T23:06:33.993Z,13.30
2023-02-22T23:09:11.658Z,14.27
2023-02-22T23:11:45.097Z,14.40
2023-02-22T23:14:21.297Z,13.47
2023-02-22T23:16:50.072Z,14.90
2023-02-22T23:19:19.138Z,12.77
2023-02-22T23:21:47.948Z,13.97
2023-02-22T23:24:16.427Z,14.30
2023-02-22T23:26:50.254Z,14.87
2023-02-22T23:29:18.524Z,14.10
2023-02-22T23:31:48.022Z,15.33
2023-02-22T23:34:16.912Z,13.83
2023-02-22T23:36:46.727Z,12.77
2023-02-22T23:39:15.454Z,14.43
2023-02-22T23:41:42.593Z,14.27
2023-02-22T23:44:17.173Z,14.00
2023-02-22T23:46:47.859Z,13.73
2023-02-22T23:49:19.963Z,12.37
2023-02-22T23:51:47.582Z,15.23
2023-02-22T23:54:19.149Z,14.40
2023-02-22T23:56:56.711Z,14.30
2023-02-22T23:59:25.223Z,14.03
